createdAt,value
2022-11-18T00:01:43.091Z,0.75
2022-11-18T00:04:13.805Z,0.85
2022-11-18T00:06:43.296Z,0.73
2022-11-18T00:09:13.030Z,0.80
2022-11-18T00:11:59.845Z,1.00
2022-11-18T00:14:29.523Z,0.85
2022-11-18T00:16:59.622Z,1.20
2022-11-18T00:19:31.100Z,0.98
2022-11-18T00:22:03.718Z,1.05
2022-11-18T00:24:33.338Z,1.42
2022-11-18T00:27:02.524Z,1.00
2022-11-18T00:29:31.890Z,0.60
2022-11-18T00:32:02.346Z,0.80
2022-11-18T00:34:33.577Z,0.55
2022-11-18T00:37:08.009Z,1.23
2022-11-18T00:39:37.193Z,0.75
2022-11-18T00:42:35.755Z,1.00
2022-11-18T00:45:04.978Z,1.38
2022-11-18T00:47:34.295Z,1.15
2022-11-18T00:50:05.187Z,0.75
2022-11-18T00:52:34.670Z,0.98
2022-11-18T00:55:03.926Z,0.95
2022-11-18T00:57:33.150Z,0.95
2022-11-18T01:00:02.832Z,0.82
2022-11-18T01:02:32.260Z,1.10
2022-11-18T01:05:01.725Z,2.15
2022-11-18T01:07:32.662Z,1.00
2022-11-18T01:10:02.178Z,0.90
2022-11-18T01:12:54.103Z,1.10
2022-11-18T01:15:24.152Z,0.70
2022-11-18T01:17:54.048Z,1.00
2022-11-18T01:20:23.564Z,1.38
2022-11-18T01:22:54.587Z,2.00
2022-11-18T01:25:24.051Z,1.02
2022-11-18T01:27:53.486Z,1.23
2022-11-18T01:30:22.961Z,0.88
2022-11-18T01:32:52.311Z,1.00
2022-11-18T01:35:21.465Z,0.65
2022-11-18T01:37:50.860Z,0.63
2022-11-18T01:40:21.835Z,0.88
2022-11-18T01:42:51.327Z,1.10
2022-11-18T01:45:31.700Z,1.05
2022-11-18T01:48:04.621Z,1.13
2022-11-18T01:50:38.980Z,1.20
2022-11-18T01:53:10.891Z,1.00
2022-11-18T01:55:46.334Z,1.65
2022-11-18T01:58:17.920Z,0.82
2022-11-18T02:00:47.464Z,0.80
2022-11-18T02:03:17.476Z,1.00
2022-11-18T02:05:48.499Z,1.00
2022-11-18T02:08:19.890Z,1.15
2022-11-18T02:10:50.736Z,1.65
2022-11-18T02:13:22.827Z,0.82
2022-11-18T02:18:30.038Z,1.13
2022-11-18T02:21:04.753Z,0.90
2022-11-18T02:23:48.949Z,0.95
2022-11-18T02:26:50.831Z,1.15
2022-11-18T02:29:22.923Z,1.52
2022-11-18T02:31:57.499Z,1.15
2022-11-18T02:34:33.401Z,0.70
2022-11-18T02:37:06.217Z,1.02
2022-11-18T02:39:40.091Z,0.85
2022-11-18T02:42:17.191Z,0.50
2022-11-18T02:44:49.968Z,0.82
2022-11-18T02:47:24.000Z,0.93
2022-11-18T02:49:57.380Z,0.98
2022-11-18T02:52:32.384Z,0.60
2022-11-18T02:55:02.628Z,1.15
2022-11-18T02:57:33.260Z,0.70
2022-11-18T03:00:04.957Z,0.85
2022-11-18T03:02:43.378Z,1.38
2022-11-18T03:05:16.206Z,0.52
2022-11-18T03:07:48.226Z,0.60
2022-11-18T03:10:18.287Z,1.13
2022-11-18T03:12:50.819Z,0.68
2022-11-18T03:15:26.020Z,0.50
2022-11-18T03:17:58.990Z,0.60
2022-11-18T03:20:31.395Z,0.65
2022-11-18T03:23:06.444Z,0.65
2022-11-18T03:25:39.153Z,0.77
2022-11-18T03:28:11.352Z,0.60
2022-11-18T03:33:16.603Z,0.80
2022-11-18T03:35:49.892Z,0.85
2022-11-18T03:38:20.551Z,1.98
2022-11-18T03:40:52.440Z,0.73
2022-11-18T03:45:52.656Z,0.77
2022-11-18T03:48:25.842Z,0.98
2022-11-18T03:51:00.775Z,0.60
2022-11-18T03:53:35.502Z,0.70
2022-11-18T03:56:12.757Z,1.20
2022-11-18T03:58:49.499Z,0.77
2022-11-18T04:01:21.815Z,0.65
2022-11-18T04:03:52.542Z,0.93
2022-11-18T04:06:27.119Z,1.35
2022-11-18T04:09:05.710Z,0.93
2022-11-18T04:12:03.057Z,0.43
2022-11-18T04:14:34.092Z,0.60
2022-11-18T04:17:07.466Z,0.70
2022-11-18T04:19:41.328Z,0.70
2022-11-18T04:22:11.240Z,0.75
2022-11-18T04:24:40.765Z,0.60
2022-11-18T04:27:10.026Z,0.60
2022-11-18T04:29:42.345Z,0.52
2022-11-18T04:32:12.152Z,0.63
2022-11-18T04:34:42.976Z,0.40
2022-11-18T04:37:15.975Z,0.70
2022-11-18T04:39:48.255Z,0.70
2022-11-18T04:42:20.870Z,0.95
2022-11-18T04:44:50.365Z,0.40
2022-11-18T04:47:19.843Z,0.60
2022-11-18T04:49:50.566Z,0.70
2022-11-18T04:52:20.131Z,0.43
2022-11-18T04:54:49.524Z,0.88
2022-11-18T04:57:19.015Z,0.65
2022-11-18T04:59:48.408Z,1.42
2022-11-18T05:02:18.611Z,0.77
2022-11-18T05:04:49.973Z,0.50
2022-11-18T05:07:21.078Z,0.60
2022-11-18T05:09:52.623Z,1.02
2022-11-18T05:12:40.389Z,0.70
2022-11-18T05:15:10.260Z,0.80
2022-11-18T05:17:42.813Z,0.60
2022-11-18T05:20:13.186Z,0.52
2022-11-18T05:22:44.173Z,0.50
2022-11-18T05:25:13.502Z,0.70
2022-11-18T05:27:42.749Z,0.50
2022-11-18T05:30:12.665Z,0.65
2022-11-18T05:32:42.669Z,0.70
2022-11-18T05:35:12.479Z,0.80
2022-11-18T05:37:41.999Z,0.80
2022-11-18T05:40:13.156Z,0.95
2022-11-18T05:43:00.115Z,0.80
2022-11-18T05:45:29.416Z,0.50
2022-11-18T05:48:01.444Z,0.93
2022-11-18T05:52:59.431Z,1.05
2022-11-18T05:55:31.559Z,0.60
2022-11-18T06:00:29.597Z,0.65
2022-11-18T06:02:59.737Z,0.80
2022-11-18T06:05:28.814Z,1.05
2022-11-18T06:07:59.581Z,0.50
2022-11-18T06:10:31.940Z,0.73
2022-11-18T06:13:02.754Z,0.70
2022-11-18T06:15:33.552Z,0.73
2022-11-18T06:18:04.091Z,0.80
2022-11-18T06:20:35.564Z,0.73
2022-11-18T06:23:04.721Z,0.50
2022-11-18T06:25:35.185Z,1.05
2022-11-18T06:28:04.528Z,0.60
2022-11-18T06:30:33.975Z,0.70
2022-11-18T06:33:03.113Z,0.60
2022-11-18T06:35:32.057Z,0.90
2022-11-18T06:38:01.231Z,0.90
2022-11-18T06:40:34.695Z,1.08
2022-11-18T06:43:26.177Z,0.65
2022-11-18T06:46:13.235Z,0.63
2022-11-18T06:48:42.852Z,0.50
2022-11-18T06:51:11.792Z,0.55
2022-11-18T06:53:40.962Z,0.52
2022-11-18T06:56:10.736Z,0.50
2022-11-18T06:58:41.835Z,1.02
2022-11-18T07:01:11.719Z,0.63
2022-11-18T07:03:40.726Z,0.82
2022-11-18T07:06:12.628Z,0.52
2022-11-18T07:08:42.684Z,0.88
2022-11-18T07:11:12.643Z,1.02
2022-11-18T07:13:43.911Z,0.60
2022-11-18T07:16:14.512Z,0.75
2022-11-18T07:18:45.323Z,0.90
2022-11-18T07:21:16.823Z,0.68
2022-11-18T07:23:48.628Z,0.85
2022-11-18T07:26:18.620Z,0.63
2022-11-18T07:28:49.418Z,1.27
2022-11-18T07:31:19.363Z,0.60
2022-11-18T07:33:48.927Z,0.57
2022-11-18T07:36:19.097Z,0.70
2022-11-18T07:38:48.641Z,0.40
2022-11-18T07:41:19.174Z,0.80
2022-11-18T07:43:50.396Z,0.80
2022-11-18T07:46:20.987Z,0.70
2022-11-18T07:48:51.556Z,0.50
2022-11-18T07:51:25.450Z,0.50
2022-11-18T07:53:54.791Z,1.00
2022-11-18T07:56:26.905Z,0.85
2022-11-18T07:59:00.667Z,0.70
2022-11-18T08:01:31.386Z,0.50
2022-11-18T08:04:06.215Z,0.70
2022-11-18T08:06:35.893Z,0.70
2022-11-18T08:09:06.534Z,0.57
2022-11-18T08:11:36.250Z,0.85
2022-11-18T08:14:06.986Z,0.80
2022-11-18T08:16:36.128Z,0.70
2022-11-18T08:19:07.053Z,0.65
2022-11-18T08:21:36.232Z,0.68
2022-11-18T08:24:05.691Z,0.70
2022-11-18T08:26:34.809Z,0.77
2022-11-18T08:29:05.452Z,0.70
2022-11-18T08:31:36.337Z,0.70
2022-11-18T08:34:09.209Z,0.85
2022-11-18T08:36:39.102Z,0.63
2022-11-18T08:39:09.879Z,0.85
2022-11-18T08:41:40.071Z,0.75
2022-11-18T08:44:13.678Z,0.77
2022-11-18T08:46:45.588Z,0.87
2022-11-18T08:49:14.864Z,0.85
2022-11-18T08:51:43.980Z,0.77
2022-11-18T08:54:13.145Z,0.75
2022-11-18T08:56:42.847Z,0.90
2022-11-18T08:59:12.107Z,1.08
2022-11-18T09:01:43.650Z,0.77
2022-11-18T09:04:14.224Z,0.68
2022-11-18T09:06:43.608Z,1.50
2022-11-18T09:09:12.836Z,1.70
2022-11-18T09:11:42.361Z,0.93
2022-11-18T09:17:01.965Z,1.00
2022-11-18T09:19:46.775Z,1.48
2022-11-18T09:22:16.845Z,0.90
2022-11-18T09:24:45.826Z,1.42
2022-11-18T09:27:17.632Z,1.35
2022-11-18T09:29:47.883Z,0.98
2022-11-18T09:32:19.737Z,0.65
2022-11-18T09:34:50.658Z,0.93
2022-11-18T09:37:20.277Z,1.02
2022-11-18T09:39:49.686Z,1.05
2022-11-18T09:42:26.695Z,1.20
2022-11-18T09:45:01.893Z,1.10
2022-11-18T09:47:33.725Z,0.98
2022-11-18T09:50:26.866Z,0.82
2022-11-18T09:52:58.106Z,0.85
2022-11-18T09:55:27.662Z,0.70
2022-11-18T09:57:58.554Z,0.75
2022-11-18T10:00:28.949Z,0.90
2022-11-18T10:03:00.097Z,0.63
2022-11-18T10:05:32.863Z,0.97
2022-11-18T10:08:06.225Z,0.80
2022-11-18T10:10:49.107Z,0.80
2022-11-18T10:13:23.880Z,0.68
2022-11-18T10:15:58.639Z,2.50
2022-11-18T10:18:58.650Z,0.70
2022-11-18T10:21:26.431Z,1.02
2022-11-18T10:24:01.169Z,0.77
2022-11-18T10:26:35.443Z,1.02
2022-11-18T10:29:07.592Z,0.80
2022-11-18T10:31:38.522Z,0.65
2022-11-18T10:34:07.646Z,0.80
2022-11-18T10:36:42.453Z,0.55
2022-11-18T10:39:14.173Z,0.82
2022-11-18T10:41:45.652Z,0.63
2022-11-18T10:44:35.003Z,0.88
2022-11-18T10:47:24.443Z,0.52
2022-11-18T10:49:54.228Z,0.82
2022-11-18T10:52:24.786Z,0.77
2022-11-18T10:55:11.412Z,0.82
2022-11-18T10:57:43.491Z,0.50
2022-11-18T11:00:27.734Z,0.70
2022-11-18T11:02:56.974Z,0.90
2022-11-18T11:05:26.575Z,1.00
2022-11-18T11:08:34.531Z,1.10
2022-11-18T11:10:58.733Z,1.48
2022-11-18T11:13:29.808Z,0.50
2022-11-18T11:16:01.293Z,0.52
2022-11-18T11:18:59.632Z,0.85
2022-11-18T11:21:34.185Z,0.98
2022-11-18T11:24:05.627Z,2.53
2022-11-18T11:29:45.366Z,0.98
2022-11-18T11:32:20.383Z,0.70
2022-11-18T11:34:54.089Z,1.20
2022-11-18T11:37:27.699Z,0.70
2022-11-18T11:40:06.410Z,0.85
2022-11-18T11:42:42.898Z,1.02
2022-11-18T11:45:26.330Z,1.25
2022-11-18T11:48:07.884Z,0.82
2022-11-18T11:51:03.985Z,0.90
2022-11-18T11:54:02.935Z,1.00
2022-11-18T11:56:35.790Z,0.63
2022-11-18T11:59:20.815Z,0.70
2022-11-18T12:02:05.483Z,2.08
2022-11-18T12:04:41.387Z,0.60
2022-11-18T12:07:16.178Z,0.55
2022-11-18T12:09:53.000Z,0.55
2022-11-18T12:12:38.555Z,0.60
2022-11-18T12:15:30.561Z,0.73
2022-11-18T12:18:09.579Z,0.82
2022-11-18T12:20:47.239Z,0.50
2022-11-18T12:23:31.143Z,0.70
2022-11-18T12:26:03.615Z,0.70
2022-11-18T12:28:36.836Z,0.63
2022-11-18T12:31:27.405Z,0.85
2022-11-18T12:34:01.429Z,0.73
2022-11-18T12:36:36.057Z,1.00
2022-11-18T12:39:27.703Z,0.73
2022-11-18T12:42:15.350Z,0.52
2022-11-18T12:44:47.548Z,0.68
2022-11-18T12:47:18.116Z,1.60
2022-11-18T12:50:03.780Z,0.75
2022-11-18T12:52:47.979Z,0.70
2022-11-18T12:55:24.903Z,0.50
2022-11-18T12:57:55.728Z,0.70
2022-11-18T13:00:56.455Z,1.02
2022-11-18T13:03:28.827Z,1.02
2022-11-18T13:06:02.854Z,0.60
2022-11-18T13:08:32.089Z,0.73
2022-11-18T13:11:24.610Z,0.73
2022-11-18T13:14:15.350Z,1.38
2022-11-18T13:17:04.132Z,0.50
2022-11-18T13:19:33.404Z,0.57
2022-11-18T13:22:34.989Z,0.57
2022-11-18T13:25:04.277Z,0.60
2022-11-18T13:27:38.543Z,0.40
2022-11-18T13:30:08.639Z,0.55
2022-11-18T13:32:44.129Z,1.05
2022-11-18T13:35:15.136Z,0.68
2022-11-18T13:37:52.101Z,0.57
2022-11-18T13:40:22.348Z,0.47
2022-11-18T13:42:52.080Z,0.47
2022-11-18T13:45:26.662Z,0.68
2022-11-18T13:47:59.121Z,0.40
2022-11-18T13:50:32.535Z,0.52
2022-11-18T13:53:15.474Z,0.47
2022-11-18T13:55:49.234Z,0.50
2022-11-18T13:58:55.656Z,0.52
2022-11-18T14:01:28.626Z,0.35
2022-11-18T14:04:00.334Z,0.63
2022-11-18T14:06:31.925Z,0.93
2022-11-18T14:09:09.462Z,0.45
2022-11-18T14:11:45.930Z,0.40
2022-11-18T14:14:32.143Z,0.30
2022-11-18T14:17:20.101Z,0.40
2022-11-18T14:20:02.378Z,0.70
2022-11-18T14:22:32.234Z,0.50
2022-11-18T14:25:07.184Z,0.43
2022-11-18T14:27:37.787Z,0.47
2022-11-18T14:30:28.191Z,0.73
2022-11-18T14:33:21.950Z,0.57
2022-11-18T14:36:00.802Z,0.30
2022-11-18T14:38:48.170Z,0.40
2022-11-18T14:41:44.801Z,0.65
2022-11-18T14:44:16.457Z,0.65
2022-11-18T14:46:46.808Z,0.50
2022-11-18T14:49:18.256Z,0.60
2022-11-18T14:54:26.253Z,0.50
2022-11-18T14:56:57.121Z,0.52
2022-11-18T14:59:28.666Z,0.50
2022-11-18T15:02:00.764Z,0.60
2022-11-18T15:04:30.660Z,0.57
2022-11-18T15:06:59.915Z,0.40
2022-11-18T15:09:40.902Z,0.60
2022-11-18T15:12:10.514Z,0.40
2022-11-18T15:14:42.148Z,0.70
2022-11-18T15:17:13.725Z,0.80
2022-11-18T15:19:45.485Z,0.30
2022-11-18T15:22:26.740Z,0.45
2022-11-18T15:24:59.869Z,0.50
2022-11-18T15:27:33.097Z,0.55
2022-11-18T15:30:10.481Z,0.50
2022-11-18T15:32:41.086Z,0.60
2022-11-18T15:35:18.771Z,1.02
2022-11-18T15:37:52.569Z,0.63
2022-11-18T15:40:24.461Z,0.50
2022-11-18T15:42:56.197Z,0.40
2022-11-18T15:45:26.363Z,0.52
2022-11-18T15:48:00.078Z,0.50
2022-11-18T15:50:29.499Z,0.50
2022-11-18T15:53:01.758Z,0.75
2022-11-18T15:55:35.856Z,0.40
2022-11-18T15:58:08.870Z,0.65
2022-11-18T16:00:38.398Z,0.50
2022-11-18T16:03:11.178Z,0.60
2022-11-18T16:05:41.443Z,1.05
2022-11-18T16:08:12.978Z,0.63
2022-11-18T16:11:01.961Z,0.80
2022-11-18T16:13:33.328Z,0.70
2022-11-18T16:16:05.663Z,0.60
2022-11-18T16:18:40.606Z,0.77
2022-11-18T16:21:11.420Z,0.60
2022-11-18T16:23:41.200Z,0.70
2022-11-18T16:26:17.609Z,0.60
2022-11-18T16:28:47.588Z,0.85
2022-11-18T16:31:36.670Z,0.60
2022-11-18T16:34:24.652Z,0.70
2022-11-18T16:36:57.459Z,0.50
2022-11-18T16:39:28.753Z,0.60
2022-11-18T16:42:11.275Z,0.60
2022-11-18T16:44:44.641Z,0.60
2022-11-18T16:47:24.285Z,0.88
2022-11-18T16:49:54.787Z,0.88
2022-11-18T16:52:25.837Z,0.60
2022-11-18T16:55:00.957Z,0.70
2022-11-18T16:57:36.602Z,1.20
2022-11-18T17:00:10.010Z,1.77
2022-11-18T17:02:52.114Z,0.70
2022-11-18T17:05:28.277Z,1.27
2022-11-18T17:08:05.155Z,1.10
2022-11-18T17:10:39.539Z,0.73
2022-11-18T17:13:17.262Z,0.85
2022-11-18T17:15:51.549Z,0.90
2022-11-18T17:18:24.555Z,1.25
2022-11-18T17:20:57.187Z,1.27
2022-11-18T17:23:30.290Z,1.85
2022-11-18T17:26:09.071Z,1.63
2022-11-18T17:28:49.741Z,1.90
2022-11-18T17:31:20.904Z,1.02
2022-11-18T17:33:57.447Z,1.50
2022-11-18T17:36:35.677Z,0.85
2022-11-18T17:39:07.391Z,0.90
2022-11-18T17:41:59.850Z,0.82
2022-11-18T17:44:33.453Z,0.75
2022-11-18T17:47:07.359Z,0.82
2022-11-18T17:49:42.379Z,0.80
2022-11-18T17:52:16.088Z,0.63
2022-11-18T17:54:52.928Z,0.60
2022-11-18T17:57:30.955Z,1.15
2022-11-18T18:00:01.891Z,1.17
2022-11-18T18:02:41.986Z,1.00
2022-11-18T18:05:24.425Z,1.15
2022-11-18T18:10:27.075Z,1.77
2022-11-18T18:13:14.356Z,2.22
2022-11-18T18:15:52.280Z,1.27
2022-11-18T18:18:23.358Z,1.27
2022-11-18T18:20:55.514Z,1.20
2022-11-18T18:23:26.948Z,0.75
2022-11-18T18:25:57.501Z,1.30
2022-11-18T18:28:27.668Z,0.77
2022-11-18T18:31:01.948Z,1.38
2022-11-18T18:33:31.908Z,1.00
2022-11-18T18:36:05.349Z,1.13
2022-11-18T18:38:35.459Z,1.00
2022-11-18T18:41:06.896Z,0.93
2022-11-18T18:43:38.955Z,1.10
2022-11-18T18:46:32.315Z,1.33
2022-11-18T18:49:06.838Z,1.60
2022-11-18T18:51:40.244Z,1.63
2022-11-18T18:54:12.114Z,1.52
2022-11-18T18:59:11.945Z,1.80
2022-11-18T19:01:42.865Z,1.30
2022-11-18T19:04:14.652Z,1.55
2022-11-18T19:06:56.809Z,2.20
2022-11-18T19:09:27.975Z,1.75
2022-11-18T19:12:14.706Z,1.98
2022-11-18T19:14:51.646Z,2.13
2022-11-18T19:17:22.611Z,1.40
2022-11-18T19:20:17.673Z,1.55
2022-11-18T19:22:48.042Z,1.77
2022-11-18T19:25:18.116Z,5.45
2022-11-18T19:27:47.534Z,7.93
2022-11-18T19:30:16.841Z,10.48
2022-11-18T19:32:48.444Z,9.52
2022-11-18T19:35:18.596Z,5.80
2022-11-18T19:37:48.116Z,5.90
2022-11-18T19:40:24.066Z,4.07
2022-11-18T19:42:57.548Z,3.50
2022-11-18T19:45:27.030Z,1.77
2022-11-18T19:48:03.101Z,2.20
2022-11-18T19:50:32.404Z,1.92
2022-11-18T19:53:22.817Z,1.80
2022-11-18T19:55:56.401Z,1.52
2022-11-18T19:58:26.610Z,1.58
2022-11-18T20:00:59.279Z,1.75
2022-11-18T20:03:31.457Z,1.80
2022-11-18T20:06:04.223Z,2.05
2022-11-18T20:08:34.565Z,2.30
2022-11-18T20:11:11.014Z,1.77
2022-11-18T20:13:41.326Z,2.33
2022-11-18T20:16:12.384Z,1.83
2022-11-18T20:18:43.533Z,2.20
2022-11-18T20:21:16.367Z,2.55
2022-11-18T20:23:48.081Z,2.53
2022-11-18T20:26:18.995Z,2.38
2022-11-18T20:28:58.001Z,1.95
2022-11-18T20:31:27.979Z,2.05
2022-11-18T20:34:01.186Z,2.88
2022-11-18T20:36:32.573Z,2.22
2022-11-18T20:39:07.183Z,3.65
2022-11-18T20:41:39.246Z,2.22
2022-11-18T20:46:50.065Z,2.58
2022-11-18T20:49:28.058Z,1.90
2022-11-18T20:51:58.448Z,2.08
2022-11-18T20:54:27.819Z,2.78
2022-11-18T20:56:58.040Z,2.28
2022-11-18T20:59:29.674Z,2.38
2022-11-18T21:01:59.256Z,2.78
2022-11-18T21:04:30.391Z,2.33
2022-11-18T21:07:01.893Z,2.42
2022-11-18T21:12:02.780Z,1.85
2022-11-18T21:14:38.077Z,1.52
2022-11-18T21:17:09.827Z,2.55
2022-11-18T21:22:16.114Z,1.92
2022-11-18T21:24:49.362Z,2.55
2022-11-18T21:27:19.044Z,2.00
2022-11-18T21:29:50.162Z,2.58
2022-11-18T21:32:22.954Z,1.77
2022-11-18T21:34:53.050Z,2.17
2022-11-18T21:37:26.848Z,2.35
2022-11-18T21:39:57.471Z,1.90
2022-11-18T21:42:33.080Z,1.92
2022-11-18T21:45:03.261Z,3.25
2022-11-18T21:47:36.619Z,2.28
2022-11-18T21:50:07.941Z,2.10
2022-11-18T21:52:39.005Z,2.28
2022-11-18T21:55:12.457Z,1.85
2022-11-18T21:57:42.950Z,1.98
2022-11-18T22:00:13.322Z,1.88
2022-11-18T22:02:43.180Z,3.20
2022-11-18T22:05:16.648Z,1.70
2022-11-18T22:07:48.606Z,1.85
2022-11-18T22:10:21.524Z,1.40
2022-11-18T22:12:51.751Z,2.15
2022-11-18T22:15:25.347Z,1.70
2022-11-18T22:17:59.591Z,1.90
2022-11-18T22:20:31.803Z,2.17
2022-11-18T22:23:10.275Z,2.42
2022-11-18T22:25:43.223Z,2.08
2022-11-18T22:30:44.849Z,1.75
2022-11-18T22:35:47.228Z,2.10
2022-11-18T22:38:26.228Z,2.45
2022-11-18T22:41:03.090Z,2.47
2022-11-18T22:43:42.168Z,1.70
2022-11-18T22:46:15.413Z,1.80
2022-11-18T22:48:55.449Z,1.80
2022-11-18T22:51:25.911Z,1.85
2022-11-18T22:54:22.933Z,2.50
2022-11-18T22:56:48.437Z,1.50
2022-11-18T22:59:18.219Z,1.77
2022-11-18T23:01:51.964Z,2.08
2022-11-18T23:04:25.592Z,1.65
2022-11-18T23:07:10.451Z,1.60
2022-11-18T23:09:44.369Z,2.67
2022-11-18T23:12:41.374Z,2.30
2022-11-18T23:15:14.699Z,1.55
2022-11-18T23:17:46.986Z,2.05
2022-11-18T23:20:17.951Z,1.50
2022-11-18T23:22:49.235Z,2.78
2022-11-18T23:25:20.275Z,1.97
2022-11-18T23:27:56.147Z,2.33
2022-11-18T23:30:45.301Z,2.08
2022-11-18T23:33:16.099Z,1.85
2022-11-18T23:35:48.346Z,1.33
2022-11-18T23:38:20.581Z,1.30
2022-11-18T23:41:00.264Z,1.85
2022-11-18T23:43:30.168Z,2.65
2022-11-18T23:46:04.093Z,1.80
2022-11-18T23:48:34.409Z,1.55
2022-11-18T23:51:04.513Z,1.50
2022-11-18T23:53:35.581Z,1.95
2022-11-18T23:56:08.085Z,2.10
2022-11-18T23:58:37.869Z,1.50
